Pagina principale
METAR-TAF:

METAR-TAF

Aeroporti :

Koksijde, Belgio

latitudine: 51-05N, longitudine: 002-39E, altezza: 4 m

Osservazione

Il bollettino è stato emesso 24 minuti fa, alle 18:38 UTC
Vento 16 kt da ovest/sud-ovest
Temperature 8°C
Umidità 93%
Pressione 1001 hPa
Visibilità 10 km o più

METAR: EBFN 161838Z AUTO 24016KT 9999 SCT019/// BKN049/// 08/07 Q1001 WHT

Ora: 20:02 (19:02 UTC)

Previsione

Il bollettino è stato emesso 3 ore e 21 minuti fa, alle 15:41 UTC
Previsione valida dal 16 alle 19 UTC al 17 alle 07 UTC
Vento 20 kt da ovest/sud-ovest con raffiche fino a 35 kt
Visibilità 10 km o più
Nuvoloso ad un'altezza di 4000 ft
Evoluzione graduale
dal 17 alle 04 UTC al 17 alle 06 UTC
Vento 15 kt da sud-ovest con raffiche fino a 25 kt
Nuvoloso ad un'altezza di 2000 ft

TAF: EBFN 161541Z 1619/1707 24020G35KT 9999 BKN040 BECMG 1704/1706 23015G25KT BKN020

Osservazioni e previsioni meteorologiche di più di 4000 aeroporti (messaggi METAR e TAF).

Le stazioni disponibili sono rappresentate dai dischi gialli e rossi sulla carta.

Puntare il mouse per vedere il nome della stazione.

Clicca sopra per visualizzare le osservazioni e previsioni meteorologiche.

Per cambiare la mappa : fare clic sui pulsanti verdi con una croce nera per ingrandire, il pulsante verde con un trattino per diminuire, o sulla freccia verde per le mappe adiacenti.


METAR-TAF: